KBED/BED METAR and TAF weather

Enter ICAO airport designator
Station Type Date Time Source
KBED METAR 2023/01/30 11:51 UTC NOAA

KBED 301151Z 23004KT 10SM CLR 00/M03 A3013 RMK AO2 SLP218 T00001028 10061 21006 51015


Station Type Date Time Source
KBED Decoded METAR 2023/01/30 11:51 UTC NOAA

BEDFORD HANSCOM FIELD, MA, United States (KBED) 42-28N 071-18W 50M
Jan 30, 2023 - 06:51 AM EST / 2023.01.30 1151 UTC
Wind: from the SW (230 degrees) at 5 MPH (4 KT):0
Visibility: 10 mile(s):0
Sky conditions: clear
Temperature: 32.0 F (0.0 C)
Windchill: 26 F (-3 C):1
Dew Point: 27.0 F (-2.8 C)
Relative Humidity: 81%
Pressure (altimeter): 30.13 in. Hg (1020 hPa)
Pressure tendency: 0.04 inches (1.5 hPa) higher than three hours ago
ob: KBED 301151Z 23004KT 10SM CLR 00/M03 A3013 RMK AO2 SLP218 T00001028 10061 21006 51015
cycle: 12

Station Type Date Time Source
KBED TAF 2023/01/30 12:27 UTC NOAA

TAF KBED 301123Z 3012/3112 24004KT P6SM SKC
FM301800 26005KT P6SM BKN070
FM302200 13004KT P6SM BKN040
FM310200 20005KT P6SM BKN040
FM310600 30008KT P6SM OVC035

Example: see airport list